createdAt,value
2023-05-07T00:02:15.391Z,98085.00
2023-05-07T00:04:49.841Z,98086.00
2023-05-07T00:07:23.974Z,98085.00
2023-05-07T00:09:58.005Z,98086.00
2023-05-07T00:12:34.728Z,98080.00
2023-05-07T00:15:10.858Z,98083.00
2023-05-07T00:17:45.225Z,98087.00
2023-05-07T00:20:20.110Z,98088.00
2023-05-07T00:22:54.159Z,98086.00
2023-05-07T00:25:28.215Z,98087.00
2023-05-07T00:28:04.601Z,98082.00
2023-05-07T00:30:38.651Z,98085.00
2023-05-07T00:33:12.770Z,98083.00
2023-05-07T00:35:46.855Z,98081.00
2023-05-07T00:38:21.792Z,98081.00
2023-05-07T00:40:55.939Z,98074.00
2023-05-07T00:43:31.654Z,98077.00
2023-05-07T00:46:06.336Z,98082.00
2023-05-07T00:48:40.506Z,98080.00
2023-05-07T00:51:14.855Z,98074.00
2023-05-07T00:53:49.542Z,98064.00
2023-05-07T00:56:24.279Z,98063.00
2023-05-07T00:58:59.821Z,98061.00
2023-05-07T01:01:34.483Z,98065.00
2023-05-07T01:04:08.637Z,98062.00
2023-05-07T01:06:45.396Z,98064.00
2023-05-07T01:09:22.967Z,98063.00
2023-05-07T01:11:59.161Z,98055.00
2023-05-07T01:14:35.447Z,98055.00
2023-05-07T01:17:09.789Z,98055.00
2023-05-07T01:19:45.112Z,98054.00
2023-05-07T01:22:32.938Z,98063.00
2023-05-07T01:25:09.313Z,98065.00
2023-05-07T01:27:43.404Z,98060.00
2023-05-07T01:30:20.499Z,98056.00
2023-05-07T01:33:01.394Z,98054.00
2023-05-07T01:35:41.161Z,98056.00
2023-05-07T01:38:16.911Z,98058.00
2023-05-07T01:40:51.074Z,98049.00
2023-05-07T01:43:25.194Z,98040.00
2023-05-07T01:46:01.283Z,98039.00
2023-05-07T01:48:36.261Z,98046.00
2023-05-07T01:51:11.230Z,98036.00
2023-05-07T01:53:48.840Z,98035.00
2023-05-07T01:56:23.320Z,98048.00
2023-05-07T01:58:57.648Z,98051.00
2023-05-07T02:01:31.988Z,98052.00
2023-05-07T02:04:06.485Z,98054.00
2023-05-07T02:06:40.789Z,98046.00
2023-05-07T02:09:16.970Z,98045.00
2023-05-07T02:11:52.894Z,98037.00
2023-05-07T02:14:27.041Z,98043.00
2023-05-07T02:17:01.153Z,98044.00
2023-05-07T02:19:35.322Z,98048.00
2023-05-07T02:22:09.485Z,98043.00
2023-05-07T02:24:45.607Z,98044.00
2023-05-07T02:27:21.149Z,98046.00
2023-05-07T02:29:55.275Z,98046.00
2023-05-07T02:32:29.319Z,98050.00
2023-05-07T02:35:03.350Z,98047.00
2023-05-07T02:37:37.494Z,98042.00
2023-05-07T02:40:14.544Z,98045.00
2023-05-07T02:42:48.883Z,98038.00
2023-05-07T02:45:23.373Z,98043.00
2023-05-07T02:47:57.489Z,98043.00
2023-05-07T02:50:31.729Z,98043.00
2023-05-07T02:53:07.020Z,98050.00
2023-05-07T02:55:43.322Z,98044.00
2023-05-07T02:58:17.658Z,98048.00
2023-05-07T03:00:51.929Z,98041.00
2023-05-07T03:03:26.016Z,98054.00
2023-05-07T03:06:00.384Z,98047.00
2023-05-07T03:08:34.558Z,98050.00
2023-05-07T03:11:10.086Z,98040.00
2023-05-07T03:13:46.724Z,98040.00
2023-05-07T03:16:21.446Z,98036.00
2023-05-07T03:18:55.727Z,98026.00
2023-05-07T03:21:29.820Z,98033.00
2023-05-07T03:24:03.890Z,98024.00
2023-05-07T03:26:39.340Z,98032.00
2023-05-07T03:29:13.595Z,98037.00
2023-05-07T03:31:47.794Z,98029.00
2023-05-07T03:34:24.090Z,98034.00
2023-05-07T03:36:58.207Z,98028.00
2023-05-07T03:39:33.163Z,98022.00
2023-05-07T03:42:08.882Z,98030.00
2023-05-07T03:44:42.948Z,98034.00
2023-05-07T03:47:16.989Z,98036.00
2023-05-07T03:49:51.448Z,98027.00
2023-05-07T03:52:27.449Z,98030.00
2023-05-07T03:55:01.529Z,98029.00
2023-05-07T03:57:36.910Z,98030.00
2023-05-07T04:00:12.856Z,98034.00
2023-05-07T04:02:47.330Z,98035.00
2023-05-07T04:05:21.713Z,98030.00
2023-05-07T04:07:55.757Z,98027.00
2023-05-07T04:10:31.206Z,98043.00
2023-05-07T04:13:06.804Z,98045.00
2023-05-07T04:15:40.970Z,98035.00
2023-05-07T04:18:15.286Z,98042.00
2023-05-07T04:20:50.298Z,98047.00
2023-05-07T04:23:26.682Z,98046.00
2023-05-07T04:26:01.870Z,98049.00
2023-05-07T04:28:38.669Z,98058.00
2023-05-07T04:31:12.689Z,98060.00
2023-05-07T04:33:46.805Z,98059.00
2023-05-07T04:36:21.260Z,98061.00
2023-05-07T04:38:55.560Z,98050.00
2023-05-07T04:41:29.659Z,98050.00
2023-05-07T04:44:06.988Z,98055.00
2023-05-07T04:46:41.018Z,98056.00
2023-05-07T04:49:15.853Z,98059.00
2023-05-07T04:51:49.930Z,98060.00
2023-05-07T04:54:24.979Z,98054.00
2023-05-07T04:56:59.185Z,98060.00
2023-05-07T04:59:34.658Z,98064.00
2023-05-07T05:02:10.643Z,98070.00
2023-05-07T05:04:44.662Z,98068.00
2023-05-07T05:07:18.811Z,98067.00
2023-05-07T05:09:53.004Z,98076.00
2023-05-07T05:12:30.249Z,98081.00
2023-05-07T05:15:07.427Z,98085.00
2023-05-07T05:17:41.895Z,98095.00
2023-05-07T05:20:15.921Z,98101.00
2023-05-07T05:22:50.001Z,98097.00
2023-05-07T05:25:25.399Z,98109.00
2023-05-07T05:27:59.515Z,98110.00
2023-05-07T05:30:35.124Z,98107.00
2023-05-07T05:33:09.355Z,98112.00
2023-05-07T05:35:44.563Z,98112.00
2023-05-07T05:38:18.596Z,98116.00
2023-05-07T05:40:53.840Z,98121.00
2023-05-07T05:43:29.440Z,98114.00
2023-05-07T05:46:05.469Z,98119.00
2023-05-07T05:48:39.679Z,98110.00
2023-05-07T05:51:13.679Z,98122.00
2023-05-07T05:53:47.749Z,98114.00
2023-05-07T05:56:22.878Z,98123.00
2023-05-07T05:58:56.985Z,98113.00
2023-05-07T06:01:32.549Z,98119.00
2023-05-07T06:04:07.042Z,98121.00
2023-05-07T06:06:41.316Z,98122.00
2023-05-07T06:09:15.320Z,98131.00
2023-05-07T06:11:49.690Z,98133.00
2023-05-07T06:14:24.356Z,98128.00
2023-05-07T06:17:00.271Z,98133.00
2023-05-07T06:19:34.573Z,98138.00
2023-05-07T06:22:08.742Z,98132.00
2023-05-07T06:24:42.759Z,98134.00
2023-05-07T06:27:16.798Z,98132.00
2023-05-07T06:29:50.994Z,98135.00
2023-05-07T06:32:27.341Z,98131.00
2023-05-07T06:35:01.480Z,98133.00
2023-05-07T06:37:35.526Z,98140.00
2023-05-07T06:40:11.598Z,98134.00
2023-05-07T06:42:45.848Z,98142.00
2023-05-07T06:45:20.335Z,98147.00
2023-05-07T06:47:55.759Z,98147.00
2023-05-07T06:50:30.114Z,98152.00
2023-05-07T06:53:04.324Z,98148.00
2023-05-07T06:55:39.159Z,98137.00
2023-05-07T06:58:13.405Z,98142.00
2023-05-07T07:00:47.455Z,98134.00
2023-05-07T07:03:23.327Z,98130.00
2023-05-07T07:05:57.463Z,98129.00
2023-05-07T07:08:31.702Z,98130.00
2023-05-07T07:11:05.738Z,98134.00
2023-05-07T07:13:41.173Z,98129.00
2023-05-07T07:16:15.369Z,98130.00
2023-05-07T07:18:51.360Z,98140.00
2023-05-07T07:21:26.168Z,98137.00
2023-05-07T07:24:00.362Z,98138.00
2023-05-07T07:26:34.519Z,98137.00
2023-05-07T07:29:08.730Z,98133.00
2023-05-07T07:31:42.848Z,98127.00
2023-05-07T07:34:18.267Z,98135.00
2023-05-07T07:36:52.364Z,98133.00
2023-05-07T07:39:27.523Z,98146.00
2023-05-07T07:42:02.120Z,98143.00
2023-05-07T07:44:36.301Z,98139.00
2023-05-07T07:47:10.524Z,98140.00
2023-05-07T07:49:46.174Z,98143.00
2023-05-07T07:52:21.016Z,98141.00
2023-05-07T07:54:55.601Z,98142.00
2023-05-07T07:57:29.852Z,98136.00
2023-05-07T08:00:05.126Z,98146.00
2023-05-07T08:02:39.331Z,98144.00
2023-05-07T08:05:16.275Z,98144.00
2023-05-07T08:07:53.063Z,98147.00
2023-05-07T08:10:27.939Z,98144.00
2023-05-07T08:13:02.520Z,98147.00
2023-05-07T08:15:36.559Z,98146.00
2023-05-07T08:18:10.642Z,98149.00
2023-05-07T08:20:46.112Z,98156.00
2023-05-07T08:23:20.099Z,98146.00
2023-05-07T08:25:54.305Z,98153.00
2023-05-07T08:28:29.381Z,98148.00
2023-05-07T08:31:03.419Z,98148.00
2023-05-07T08:33:39.256Z,98145.00
2023-05-07T08:36:14.722Z,98150.00
2023-05-07T08:38:48.731Z,98152.00
2023-05-07T08:41:23.456Z,98148.00
2023-05-07T08:44:01.699Z,98151.00
2023-05-07T08:46:36.912Z,98156.00
2023-05-07T08:49:11.676Z,98152.00
2023-05-07T08:51:47.391Z,98161.00
2023-05-07T08:54:24.169Z,98159.00
2023-05-07T08:56:58.238Z,98158.00
2023-05-07T08:59:32.510Z,98156.00
2023-05-07T09:02:09.999Z,98153.00
2023-05-07T09:04:44.416Z,98153.00
2023-05-07T09:07:21.305Z,98156.00
2023-05-07T09:09:56.329Z,98145.00
2023-05-07T09:12:30.413Z,98153.00
2023-05-07T09:15:05.143Z,98153.00
2023-05-07T09:17:39.416Z,98153.00
2023-05-07T09:20:14.074Z,98144.00
2023-05-07T09:22:52.176Z,98144.00
2023-05-07T09:25:31.210Z,98140.00
2023-05-07T09:28:07.350Z,98135.00
2023-05-07T09:30:41.477Z,98146.00
2023-05-07T09:33:16.035Z,98140.00
2023-05-07T09:35:53.703Z,98137.00
2023-05-07T09:38:29.607Z,98132.00
2023-05-07T09:41:09.247Z,98135.00
2023-05-07T09:43:43.557Z,98139.00
2023-05-07T09:46:18.756Z,98132.00
2023-05-07T09:48:59.283Z,98132.00
2023-05-07T09:51:50.799Z,98128.00
2023-05-07T09:54:30.489Z,98134.00
2023-05-07T09:57:04.871Z,98130.00
2023-05-07T09:59:40.637Z,98130.00
2023-05-07T10:02:16.896Z,98132.00
2023-05-07T10:04:51.600Z,98125.00
2023-05-07T10:07:27.553Z,98130.00
2023-05-07T10:10:03.822Z,98138.00
2023-05-07T10:12:40.138Z,98126.00
2023-05-07T10:15:15.492Z,98122.00
2023-05-07T10:17:51.829Z,98125.00
2023-05-07T10:20:27.845Z,98117.00
2023-05-07T10:23:06.642Z,98117.00
2023-05-07T10:25:42.150Z,98113.00
2023-05-07T10:28:18.739Z,98107.00
2023-05-07T10:31:08.464Z,98105.00
2023-05-07T10:33:43.932Z,98105.00
2023-05-07T10:36:18.984Z,98101.00
2023-05-07T10:38:53.531Z,98107.00
2023-05-07T10:41:30.233Z,98098.00
2023-05-07T10:44:05.072Z,98099.00
2023-05-07T10:46:39.564Z,98104.00
2023-05-07T10:49:14.135Z,98100.00
2023-05-07T10:52:15.481Z,98097.00
2023-05-07T10:55:23.313Z,98100.00
2023-05-07T10:57:58.776Z,98093.00
2023-05-07T11:00:48.177Z,98087.00
2023-05-07T11:03:24.039Z,98089.00
2023-05-07T11:06:15.001Z,98092.00
2023-05-07T11:08:57.038Z,98089.00
2023-05-07T11:11:52.536Z,98087.00
2023-05-07T11:14:47.441Z,98092.00
2023-05-07T11:17:21.914Z,98079.00
2023-05-07T11:19:58.006Z,98082.00
2023-05-07T11:22:41.801Z,98075.00
2023-05-07T11:25:20.989Z,98078.00
2023-05-07T11:27:56.158Z,98069.00
2023-05-07T11:30:31.698Z,98077.00
2023-05-07T11:33:06.597Z,98079.00
2023-05-07T11:35:41.384Z,98079.00
2023-05-07T11:38:16.981Z,98075.00
2023-05-07T11:40:56.925Z,98064.00
2023-05-07T11:43:31.095Z,98072.00
2023-05-07T11:46:11.200Z,98067.00
2023-05-07T11:48:46.138Z,98068.00
2023-05-07T11:51:29.217Z,98074.00
2023-05-07T11:54:09.686Z,98070.00
2023-05-07T11:56:43.932Z,98074.00
2023-05-07T11:59:21.156Z,98072.00
2023-05-07T12:02:00.151Z,98093.00
2023-05-07T12:04:35.617Z,98095.00
2023-05-07T12:07:14.570Z,98105.00
2023-05-07T12:09:49.359Z,98113.00
2023-05-07T12:12:23.410Z,98125.00
2023-05-07T12:14:57.543Z,98113.00
2023-05-07T12:17:33.818Z,98121.00
2023-05-07T12:20:10.903Z,98112.00
2023-05-07T12:22:45.694Z,98112.00
2023-05-07T12:25:22.089Z,98121.00
2023-05-07T12:27:56.323Z,98110.00
2023-05-07T12:30:31.054Z,98123.00
2023-05-07T12:33:07.032Z,98123.00
2023-05-07T12:35:43.443Z,98128.00
2023-05-07T12:38:20.357Z,98130.00
2023-05-07T12:40:57.028Z,98131.00
2023-05-07T12:43:32.688Z,98125.00
2023-05-07T12:46:08.530Z,98131.00
2023-05-07T12:48:47.705Z,98121.00
2023-05-07T12:51:21.738Z,98123.00
2023-05-07T12:54:00.212Z,98118.00
2023-05-07T12:56:37.880Z,98131.00
2023-05-07T12:59:12.162Z,98128.00
2023-05-07T13:01:47.348Z,98131.00
2023-05-07T13:04:22.812Z,98136.00
2023-05-07T13:06:58.542Z,98134.00
2023-05-07T13:09:33.714Z,98135.00
2023-05-07T13:12:08.122Z,98138.00
2023-05-07T13:14:42.637Z,98147.00
2023-05-07T13:17:16.817Z,98165.00
2023-05-07T13:19:52.247Z,98156.00
2023-05-07T13:22:26.681Z,98161.00
2023-05-07T13:25:01.220Z,98162.00
2023-05-07T13:27:38.833Z,98160.00
2023-05-07T13:30:13.599Z,98156.00
2023-05-07T13:32:48.893Z,98161.00
2023-05-07T13:35:24.696Z,98160.00
2023-05-07T13:37:58.855Z,98168.00
2023-05-07T13:40:32.964Z,98159.00
2023-05-07T13:43:08.940Z,98166.00
2023-05-07T13:45:43.376Z,98181.00
2023-05-07T13:48:17.552Z,98203.00
2023-05-07T13:50:53.073Z,98235.00
2023-05-07T13:53:28.403Z,98225.00
2023-05-07T13:56:05.483Z,98220.00
2023-05-07T13:58:51.997Z,98213.00
2023-05-07T14:01:33.326Z,98230.00
2023-05-07T14:04:11.977Z,98231.00
2023-05-07T14:06:47.877Z,98228.00
2023-05-07T14:09:22.040Z,98223.00
2023-05-07T14:11:56.282Z,98227.00
2023-05-07T14:14:32.167Z,98216.00
2023-05-07T14:17:06.416Z,98215.00
2023-05-07T14:19:42.742Z,98223.00
2023-05-07T14:22:18.082Z,98233.00
2023-05-07T14:25:05.275Z,98242.00
2023-05-07T14:27:46.294Z,98252.00
2023-05-07T14:30:20.365Z,98253.00
2023-05-07T14:32:54.481Z,98252.00
2023-05-07T14:35:28.608Z,98247.00
2023-05-07T14:38:04.237Z,98245.00
2023-05-07T14:40:38.236Z,98238.00
2023-05-07T14:43:12.240Z,98222.00
2023-05-07T14:45:46.346Z,98220.00
2023-05-07T14:48:21.190Z,98213.00
2023-05-07T14:50:55.453Z,98213.00
2023-05-07T14:53:33.816Z,98216.00
2023-05-07T14:56:08.202Z,98201.00
2023-05-07T14:58:42.711Z,98198.00
2023-05-07T15:01:17.015Z,98194.00
2023-05-07T15:03:54.066Z,98187.00
2023-05-07T15:06:38.316Z,98183.00
2023-05-07T15:09:14.474Z,98187.00
2023-05-07T15:11:48.870Z,98188.00
2023-05-07T15:14:23.447Z,98179.00
2023-05-07T15:16:57.598Z,98173.00
2023-05-07T15:19:33.267Z,98175.00
2023-05-07T15:22:07.401Z,98183.00
2023-05-07T15:24:43.355Z,98192.00
2023-05-07T15:27:19.100Z,98187.00
2023-05-07T15:29:53.915Z,98193.00
2023-05-07T15:32:28.229Z,98191.00
2023-05-07T15:35:05.256Z,98179.00
2023-05-07T15:37:39.373Z,98170.00
2023-05-07T15:40:15.591Z,98172.00
2023-05-07T15:42:49.798Z,98165.00
2023-05-07T15:45:24.891Z,98167.00
2023-05-07T15:48:02.384Z,98174.00
2023-05-07T15:50:36.865Z,98184.00
2023-05-07T15:53:11.131Z,98183.00
2023-05-07T15:55:48.305Z,98183.00
2023-05-07T15:58:23.971Z,98178.00
2023-05-07T16:00:58.565Z,98181.00
2023-05-07T16:03:34.769Z,98195.00
2023-05-07T16:06:10.996Z,98190.00
2023-05-07T16:08:45.168Z,98193.00
2023-05-07T16:11:20.702Z,98196.00
2023-05-07T16:13:54.860Z,98197.00
2023-05-07T16:16:32.901Z,98198.00
2023-05-07T16:19:07.065Z,98197.00
2023-05-07T16:21:42.261Z,98198.00
2023-05-07T16:24:16.647Z,98195.00
2023-05-07T16:26:55.131Z,98209.00
2023-05-07T16:29:29.344Z,98210.00
2023-05-07T16:32:03.546Z,98212.00
2023-05-07T16:34:37.701Z,98208.00
2023-05-07T16:37:12.006Z,98214.00
2023-05-07T16:39:46.686Z,98214.00
2023-05-07T16:42:22.172Z,98222.00
2023-05-07T16:44:57.054Z,98221.00
2023-05-07T16:47:31.847Z,98217.00
2023-05-07T16:50:07.640Z,98220.00
2023-05-07T16:52:41.988Z,98231.00
2023-05-07T16:55:16.350Z,98241.00
2023-05-07T16:57:51.819Z,98239.00
2023-05-07T17:00:31.786Z,98248.00
2023-05-07T17:03:09.178Z,98249.00
2023-05-07T17:05:43.564Z,98251.00
2023-05-07T17:08:17.664Z,98259.00
2023-05-07T17:10:51.776Z,98252.00
2023-05-07T17:13:27.405Z,98257.00
2023-05-07T17:16:01.618Z,98268.00
2023-05-07T17:18:36.855Z,98269.00
2023-05-07T17:21:11.033Z,98270.00
2023-05-07T17:23:45.097Z,98264.00
2023-05-07T17:26:19.463Z,98265.00
2023-05-07T17:28:55.020Z,98264.00
2023-05-07T17:31:29.235Z,98274.00
2023-05-07T17:34:03.593Z,98279.00
2023-05-07T17:36:38.800Z,98289.00
2023-05-07T17:39:12.902Z,98290.00
2023-05-07T17:41:47.104Z,98292.00
2023-05-07T17:44:22.733Z,98299.00
2023-05-07T17:46:56.893Z,98302.00
2023-05-07T17:49:31.490Z,98306.00
2023-05-07T17:52:06.156Z,98307.00
2023-05-07T17:54:40.294Z,98307.00
2023-05-07T17:57:14.380Z,98315.00
2023-05-07T17:59:50.118Z,98309.00
2023-05-07T18:02:24.352Z,98317.00
2023-05-07T18:04:59.768Z,98314.00
2023-05-07T18:07:35.112Z,98318.00
2023-05-07T18:10:10.478Z,98319.00
2023-05-07T18:12:44.850Z,98318.00
2023-05-07T18:15:20.648Z,98324.00
2023-05-07T18:17:54.920Z,98323.00
2023-05-07T18:20:29.205Z,98325.00
2023-05-07T18:23:04.496Z,98329.00
2023-05-07T18:25:38.740Z,98331.00
2023-05-07T18:28:12.956Z,98333.00
2023-05-07T18:30:48.376Z,98334.00
2023-05-07T18:33:22.710Z,98335.00
2023-05-07T18:35:56.766Z,98345.00
2023-05-07T18:38:31.077Z,98337.00
2023-05-07T18:41:05.908Z,98342.00
2023-05-07T18:43:40.172Z,98348.00
2023-05-07T18:46:15.812Z,98349.00
2023-05-07T18:48:49.954Z,98345.00
2023-05-07T18:51:24.040Z,98348.00
2023-05-07T18:53:58.196Z,98348.00
2023-05-07T18:56:34.727Z,98350.00
2023-05-07T18:59:08.921Z,98348.00
2023-05-07T19:01:44.565Z,98346.00
2023-05-07T19:04:19.099Z,98350.00
2023-05-07T19:06:53.279Z,98362.00
2023-05-07T19:09:27.334Z,98367.00
2023-05-07T19:12:02.405Z,98356.00
2023-05-07T19:14:41.273Z,98368.00
2023-05-07T19:17:17.148Z,98375.00
2023-05-07T19:19:51.383Z,98370.00
2023-05-07T19:22:25.787Z,98374.00
2023-05-07T19:24:59.916Z,98387.00
2023-05-07T19:27:34.676Z,98386.00
2023-05-07T19:30:10.751Z,98387.00
2023-05-07T19:32:46.361Z,98393.00
2023-05-07T19:35:20.718Z,98404.00
2023-05-07T19:37:54.810Z,98407.00
2023-05-07T19:40:29.125Z,98412.00
2023-05-07T19:43:04.004Z,98415.00
2023-05-07T19:45:42.774Z,98414.00
2023-05-07T19:48:18.412Z,98409.00
2023-05-07T19:50:52.740Z,98419.00
2023-05-07T19:53:27.555Z,98425.00
2023-05-07T19:56:04.737Z,98424.00
2023-05-07T19:58:42.938Z,98424.00
2023-05-07T20:01:17.240Z,98424.00
2023-05-07T20:03:53.215Z,98429.00
2023-05-07T20:06:27.539Z,98434.00
2023-05-07T20:09:01.827Z,98433.00
2023-05-07T20:11:36.141Z,98433.00
2023-05-07T20:14:10.556Z,98433.00
2023-05-07T20:16:46.654Z,98433.00
2023-05-07T20:19:22.078Z,98435.00
2023-05-07T20:21:56.868Z,98438.00
2023-05-07T20:24:31.029Z,98431.00
2023-05-07T20:27:05.829Z,98438.00
2023-05-07T20:29:41.262Z,98445.00
2023-05-07T20:32:15.479Z,98446.00
2023-05-07T20:34:50.988Z,98448.00
2023-05-07T20:37:26.622Z,98446.00
2023-05-07T20:40:01.157Z,98442.00
2023-05-07T20:42:35.446Z,98447.00
2023-05-07T20:45:11.786Z,98439.00
2023-05-07T20:47:46.024Z,98446.00
2023-05-07T20:50:24.286Z,98445.00
2023-05-07T20:52:58.327Z,98448.00
2023-05-07T20:55:32.405Z,98446.00
2023-05-07T20:58:06.400Z,98448.00
2023-05-07T21:00:41.530Z,98450.00
2023-05-07T21:03:15.807Z,98453.00
2023-05-07T21:05:54.157Z,98457.00
2023-05-07T21:08:28.471Z,98452.00
2023-05-07T21:11:02.722Z,98454.00
2023-05-07T21:13:36.770Z,98459.00
2023-05-07T21:16:11.903Z,98460.00
2023-05-07T21:18:46.021Z,98461.00
2023-05-07T21:21:21.448Z,98459.00
2023-05-07T21:23:55.577Z,98460.00
2023-05-07T21:26:29.678Z,98466.00
2023-05-07T21:29:03.855Z,98461.00
2023-05-07T21:31:38.255Z,98455.00
2023-05-07T21:34:12.392Z,98465.00
2023-05-07T21:36:47.798Z,98458.00
2023-05-07T21:39:22.610Z,98456.00
2023-05-07T21:41:56.944Z,98459.00
2023-05-07T21:44:32.529Z,98453.00
2023-05-07T21:47:06.739Z,98451.00
2023-05-07T21:49:42.456Z,98461.00
2023-05-07T21:52:18.697Z,98459.00
2023-05-07T21:54:53.770Z,98461.00
2023-05-07T21:57:27.816Z,98460.00
2023-05-07T22:00:01.870Z,98460.00
2023-05-07T22:02:36.330Z,98458.00
2023-05-07T22:05:11.036Z,98463.00
2023-05-07T22:07:46.351Z,98459.00
2023-05-07T22:10:22.718Z,98456.00
2023-05-07T22:12:57.137Z,98465.00
2023-05-07T22:15:32.662Z,98462.00
2023-05-07T22:18:07.989Z,98456.00
2023-05-07T22:20:43.345Z,98462.00
2023-05-07T22:23:18.763Z,98457.00
2023-05-07T22:25:52.871Z,98458.00
2023-05-07T22:28:26.982Z,98457.00
2023-05-07T22:31:01.007Z,98466.00
2023-05-07T22:33:35.189Z,98460.00
2023-05-07T22:36:09.891Z,98456.00
2023-05-07T22:38:48.341Z,98465.00
2023-05-07T22:41:22.640Z,98463.00
2023-05-07T22:43:56.614Z,98462.00
2023-05-07T22:46:30.953Z,98463.00
2023-05-07T22:49:05.169Z,98467.00
2023-05-07T22:51:39.516Z,98457.00
2023-05-07T22:54:14.952Z,98455.00
2023-05-07T22:56:49.042Z,98455.00
2023-05-07T22:59:23.188Z,98458.00
2023-05-07T23:01:57.623Z,98458.00
2023-05-07T23:04:31.791Z,98461.00
2023-05-07T23:07:06.573Z,98458.00
2023-05-07T23:09:42.305Z,98458.00
2023-05-07T23:12:16.504Z,98456.00
2023-05-07T23:14:50.603Z,98457.00
2023-05-07T23:17:24.943Z,98455.00
2023-05-07T23:19:59.039Z,98449.00
2023-05-07T23:22:33.225Z,98452.00
2023-05-07T23:25:09.772Z,98453.00
2023-05-07T23:27:47.194Z,98457.00
2023-05-07T23:30:21.582Z,98454.00
2023-05-07T23:32:55.834Z,98452.00
2023-05-07T23:35:30.035Z,98448.00
2023-05-07T23:38:04.159Z,98450.00
2023-05-07T23:40:39.633Z,98451.00
2023-05-07T23:43:13.794Z,98451.00
2023-05-07T23:45:48.303Z,98448.00
2023-05-07T23:48:22.554Z,98442.00
2023-05-07T23:50:56.630Z,98448.00
2023-05-07T23:53:30.752Z,98448.00
2023-05-07T23:56:07.103Z,98454.00
2023-05-07T23:58:41.503Z,98444.00
